Time,TemperatureF,DewpointF,PressureIn,WindDirection,WindDirectionDegrees,WindSpeedMPH,WindSpeedGustMPH,Humidity,HourlyPrecipIn,Conditions,Clouds,dailyrainin,SoftwareType,DateUTC
2015-07-06 00:05:00,65.5,62.2,29.97,East,94,0.0,3.0,89,0.00,,,0.00,Wunderground v.1.15,2015-07-06 04:05:00,
2015-07-06 00:15:00,65.3,62.0,29.97,East,94,0.0,0.0,89,0.00,,,0.00,Wunderground v.1.15,2015-07-06 04:15:00,
2015-07-06 00:20:00,65.2,62.2,29.96,East,94,0.0,1.0,90,0.00,,,0.00,Wunderground v.1.15,2015-07-06 04:20:00,
2015-07-06 00:30:00,65.0,62.0,29.96,East,94,0.0,0.0,90,0.00,,,0.00,Wunderground v.1.15,2015-07-06 04:30:00,
2015-07-06 00:35:00,64.9,61.9,29.96,East,94,0.0,2.0,90,0.00,,,0.00,Wunderground v.1.15,2015-07-06 04:35:00,
2015-07-06 00:45:00,64.8,61.8,29.96,NNW,336,2.0,3.0,90,0.00,,,0.00,Wunderground v.1.15,2015-07-06 04:45:00,
2015-07-06 00:50:00,64.6,61.6,29.96,NNW,336,1.0,1.0,90,0.00,,,0.00,Wunderground v.1.15,2015-07-06 04:50:00,
2015-07-06 01:00:00,64.3,61.6,29.95,NNW,336,0.0,0.0,91,0.00,,,0.00,Wunderground v.1.15,2015-07-06 05:00:00,
2015-07-06 01:10:00,64.0,61.3,29.96,NNW,336,0.0,0.0,91,0.00,,,0.00,Wunderground v.1.15,2015-07-06 05:10:00,
2015-07-06 01:15:00,63.8,61.1,29.95,NNW,336,0.0,0.0,91,0.00,,,0.00,Wunderground v.1.15,2015-07-06 05:15:00,
2015-07-06 01:20:00,63.7,61.0,29.95,NNW,336,0.0,1.0,91,0.00,,,0.00,Wunderground v.1.15,2015-07-06 05:20:00,
2015-07-06 01:30:00,63.5,61.1,29.95,NNW,336,2.0,2.0,92,0.00,,,0.00,Wunderground v.1.15,2015-07-06 05:30:00,
2015-07-06 01:40:00,63.3,60.9,29.95,NNW,336,2.0,2.0,92,0.00,,,0.00,Wunderground v.1.15,2015-07-06 05:40:00,
2015-07-06 01:50:00,63.1,60.7,29.94,NNW,336,1.0,1.0,92,0.00,,,0.00,Wunderground v.1.15,2015-07-06 05:50:00,
2015-07-06 02:00:00,63.0,60.6,29.94,NNW,336,0.0,1.0,92,0.00,,,0.00,Wunderground v.1.15,2015-07-06 06:00:00,
2015-07-06 02:05:00,63.0,60.6,29.94,NNW,336,1.0,3.0,92,0.00,,,0.00,Wunderground v.1.15,2015-07-06 06:05:00,
2015-07-06 02:15:00,62.7,60.3,29.93,NNW,336,2.0,2.0,92,0.00,,,0.00,Wunderground v.1.15,2015-07-06 06:15:00,
2015-07-06 02:20:00,62.6,60.2,29.93,NNW,336,2.0,3.0,92,0.00,,,0.00,Wunderground v.1.15,2015-07-06 06:20:00,
2015-07-06 02:30:00,62.4,60.3,29.93,NNW,336,0.0,0.0,93,0.00,,,0.00,Wunderground v.1.15,2015-07-06 06:30:00,
2015-07-06 02:40:00,62.4,60.3,29.93,NNW,336,1.0,2.0,93,0.00,,,0.00,Wunderground v.1.15,2015-07-06 06:40:00,
2015-07-06 02:45:00,62.3,60.2,29.93,NNW,336,2.0,2.0,93,0.00,,,0.00,Wunderground v.1.15,2015-07-06 06:45:00,
2015-07-06 02:55:00,62.2,60.2,29.93,NNW,336,2.0,3.0,93,0.00,,,0.00,Wunderground v.1.15,2015-07-06 06:55:00,
2015-07-06 03:00:00,62.2,60.5,29.93,NNW,336,3.0,3.0,94,0.00,,,0.00,Wunderground v.1.15,2015-07-06 07:00:00,
2015-07-06 03:10:00,62.1,60.4,29.93,NNW,336,3.0,3.0,94,0.00,,,0.00,Wunderground v.1.15,2015-07-06 07:10:00,
2015-07-06 03:20:00,62.0,60.3,29.93,NNW,336,2.0,2.0,94,0.00,,,0.00,Wunderground v.1.15,2015-07-06 07:20:00,
2015-07-06 03:30:00,61.9,60.2,29.93,NNW,337,2.0,2.0,94,0.00,,,0.00,Wunderground v.1.15,2015-07-06 07:30:00,
2015-07-06 03:35:00,61.9,60.2,29.93,NNW,336,2.0,3.0,94,0.00,,,0.00,Wunderground v.1.15,2015-07-06 07:35:00,
2015-07-06 03:45:00,61.8,60.1,29.93,NNW,336,0.0,2.0,94,0.00,,,0.00,Wunderground v.1.15,2015-07-06 07:45:00,
2015-07-06 03:50:00,61.6,59.9,29.93,NNW,336,0.0,3.0,94,0.00,,,0.00,Wunderground v.1.15,2015-07-06 07:50:00,
2015-07-06 04:00:00,61.5,60.1,29.93,NNW,336,0.0,0.0,95,0.00,,,0.00,Wunderground v.1.15,2015-07-06 08:00:00,
2015-07-06 04:10:00,61.4,60.0,29.93,NNW,336,0.0,0.0,95,0.00,,,0.00,Wunderground v.1.15,2015-07-06 08:10:00,
2015-07-06 04:15:00,61.4,60.0,29.93,NNW,336,1.0,1.0,95,0.00,,,0.00,Wunderground v.1.15,2015-07-06 08:15:00,
2015-07-06 04:25:00,61.4,60.0,29.93,NNW,336,2.0,2.0,95,0.00,,,0.00,Wunderground v.1.15,2015-07-06 08:25:00,
2015-07-06 04:30:00,61.4,60.0,29.93,NNW,336,2.0,4.0,95,0.00,,,0.00,Wunderground v.1.15,2015-07-06 08:30:00,
2015-07-06 04:40:00,61.2,59.8,29.94,NNW,336,3.0,3.0,95,0.00,,,0.00,Wunderground v.1.15,2015-07-06 08:40:00,
2015-07-06 04:50:00,61.1,59.7,29.94,NNW,336,3.0,4.0,95,0.00,,,0.00,Wunderground v.1.15,2015-07-06 08:50:00,
2015-07-06 04:55:00,61.1,59.7,29.94,NNW,336,3.0,4.0,95,0.00,,,0.00,Wunderground v.1.15,2015-07-06 08:55:00,
2015-07-06 05:05:00,61.0,59.6,29.94,NNW,336,2.0,3.0,95,0.00,,,0.00,Wunderground v.1.15,2015-07-06 09:05:00,
2015-07-06 05:15:00,60.9,59.5,29.94,NNW,336,2.0,2.0,95,0.00,,,0.00,Wunderground v.1.15,2015-07-06 09:15:00,
2015-07-06 05:20:00,60.9,59.5,29.94,NNW,336,2.0,4.0,95,0.00,,,0.00,Wunderground v.1.15,2015-07-06 09:20:00,
2015-07-06 05:30:00,60.9,59.5,29.95,NW,313,3.0,3.0,95,0.00,,,0.00,Wunderground v.1.15,2015-07-06 09:30:00,
2015-07-06 05:35:00,60.9,59.5,29.95,NW,317,2.0,4.0,95,0.00,,,0.00,Wunderground v.1.15,2015-07-06 09:35:00,
2015-07-06 05:45:00,60.7,59.3,29.96,NW,317,0.0,2.0,95,0.00,,,0.00,Wunderground v.1.15,2015-07-06 09:45:00,
2015-07-06 05:55:00,60.6,59.5,29.97,NW,317,1.0,4.0,96,0.00,,,0.00,Wunderground v.1.15,2015-07-06 09:55:00,
2015-07-06 06:00:00,60.6,59.5,29.96,NW,317,2.0,2.0,96,0.00,,,0.00,Wunderground v.1.15,2015-07-06 10:00:00,
2015-07-06 06:10:00,60.4,59.3,29.97,NW,317,2.0,2.0,96,0.00,,,0.00,Wunderground v.1.15,2015-07-06 10:10:00,
2015-07-06 06:15:00,60.4,59.3,29.97,NW,317,2.0,3.0,96,0.00,,,0.00,Wunderground v.1.15,2015-07-06 10:15:00,
2015-07-06 06:25:00,60.2,59.1,29.97,NW,325,3.0,3.0,96,0.00,,,0.00,Wunderground v.1.15,2015-07-06 10:25:00,
2015-07-06 06:35:00,60.5,59.4,29.97,NW,310,3.0,3.0,96,0.00,,,0.00,Wunderground v.1.15,2015-07-06 10:35:00,
2015-07-06 06:40:00,60.6,59.5,29.97,WNW,303,3.0,3.0,96,0.00,,,0.00,Wunderground v.1.15,2015-07-06 10:40:00,
2015-07-06 06:50:00,60.6,59.5,29.97,WNW,300,2.0,4.0,96,0.00,,,0.00,Wunderground v.1.15,2015-07-06 10:50:00,
2015-07-06 07:00:00,60.9,59.8,29.97,WNW,302,3.0,3.0,96,0.00,,,0.00,Wunderground v.1.15,2015-07-06 11:00:00,
2015-07-06 07:05:00,61.0,59.9,29.97,WNW,302,3.0,4.0,96,0.00,,,0.00,Wunderground v.1.15,2015-07-06 11:05:00,
2015-07-06 07:15:00,61.3,60.4,29.98,NW,311,3.0,3.0,97,0.00,,,0.00,Wunderground v.1.15,2015-07-06 11:15:00,
2015-07-06 07:20:00,61.6,60.7,29.97,WNW,297,3.0,3.0,97,0.00,,,0.00,Wunderground v.1.15,2015-07-06 11:20:00,
2015-07-06 07:30:00,62.0,61.1,29.97,WNW,296,2.0,2.0,97,0.00,,,0.00,Wunderground v.1.15,2015-07-06 11:30:00,
2015-07-06 07:35:00,62.2,61.3,29.97,WNW,301,2.0,5.0,97,0.00,,,0.00,Wunderground v.1.15,2015-07-06 11:35:00,
2015-07-06 07:45:00,63.1,62.2,29.97,NW,313,2.0,3.0,97,0.00,,,0.00,Wunderground v.1.15,2015-07-06 11:45:00,
2015-07-06 07:55:00,64.5,63.3,29.97,NNW,338,1.0,1.0,96,0.00,,,0.00,Wunderground v.1.15,2015-07-06 11:55:00,
2015-07-06 08:05:00,65.9,63.8,29.98,NNW,341,1.0,5.0,93,0.00,,,0.00,Wunderground v.1.15,2015-07-06 12:05:00,
2015-07-06 08:15:00,66.8,63.5,29.99,WNW,302,2.0,5.0,89,0.00,,,0.00,Wunderground v.1.15,2015-07-06 12:15:00,
2015-07-06 08:20:00,67.2,63.5,29.99,NW,308,3.0,3.0,88,0.00,,,0.00,Wunderground v.1.15,2015-07-06 12:20:00,
2015-07-06 08:30:00,68.0,63.7,29.98,West,278,3.0,4.0,86,0.00,,,0.00,Wunderground v.1.15,2015-07-06 12:30:00,
2015-07-06 08:35:00,68.6,63.9,29.98,NW,313,3.0,7.0,85,0.00,,,0.00,Wunderground v.1.15,2015-07-06 12:35:00,
2015-07-06 08:45:00,69.5,64.1,29.98,NW,308,2.0,2.0,83,0.00,,,0.00,Wunderground v.1.15,2015-07-06 12:45:00,
2015-07-06 08:55:00,70.5,64.4,29.98,NNW,342,3.0,7.0,81,0.00,,,0.00,Wunderground v.1.15,2015-07-06 12:55:00,
2015-07-06 09:00:00,71.0,64.9,29.99,NW,323,3.0,3.0,81,0.00,,,0.00,Wunderground v.1.15,2015-07-06 13:00:00,
2015-07-06 09:10:00,72.0,64.8,29.99,NNW,342,4.0,6.0,78,0.00,,,0.00,Wunderground v.1.15,2015-07-06 13:10:00,
2015-07-06 09:15:00,72.4,65.2,29.99,North,5,4.0,6.0,78,0.00,,,0.00,Wunderground v.1.15,2015-07-06 13:15:00,
2015-07-06 09:25:00,72.9,64.9,29.98,NNW,340,4.0,8.0,76,0.00,,,0.00,Wunderground v.1.15,2015-07-06 13:25:00,
2015-07-06 09:30:00,73.2,64.8,29.98,NNW,347,4.0,4.0,75,0.00,,,0.00,Wunderground v.1.15,2015-07-06 13:30:00,
2015-07-06 09:40:00,74.1,65.3,29.97,NNW,341,1.0,1.0,74,0.00,,,0.00,Wunderground v.1.15,2015-07-06 13:40:00,
2015-07-06 09:50:00,74.8,64.4,29.98,NNW,334,2.0,8.0,70,0.00,,,0.00,Wunderground v.1.15,2015-07-06 13:50:00,
2015-07-06 10:00:00,74.9,63.6,29.98,WSW,253,2.0,2.0,68,0.00,,,0.00,Wunderground v.1.15,2015-07-06 14:00:00,
2015-07-06 10:10:00,74.6,62.9,29.97,West,266,2.0,2.0,67,0.00,,,0.00,Wunderground v.1.15,2015-07-06 14:10:00,
2015-07-06 10:15:00,74.8,63.1,29.97,West,264,2.0,2.0,67,0.00,,,0.00,Wunderground v.1.15,2015-07-06 14:15:00,
2015-07-06 10:25:00,75.7,64.0,29.97,West,271,2.0,2.0,67,0.00,,,0.00,Wunderground v.1.15,2015-07-06 14:25:00,
2015-07-06 10:30:00,75.9,64.6,29.97,West,265,2.0,2.0,68,0.00,,,0.00,Wunderground v.1.15,2015-07-06 14:30:00,
2015-07-06 10:40:00,75.7,64.0,29.97,West,268,3.0,3.0,67,0.00,,,0.00,Wunderground v.1.15,2015-07-06 14:40:00,
2015-07-06 10:50:00,75.6,64.3,29.97,West,269,4.0,6.0,68,0.00,,,0.00,Wunderground v.1.15,2015-07-06 14:50:00,
2015-07-06 10:55:00,75.4,63.7,29.97,South,188,5.0,6.0,67,0.00,,,0.00,Wunderground v.1.15,2015-07-06 14:55:00,
2015-07-06 11:05:00,75.6,64.3,29.98,West,259,5.0,6.0,68,0.00,,,0.00,Wunderground v.1.15,2015-07-06 15:05:00,
2015-07-06 11:10:00,75.8,64.5,29.98,WSW,254,6.0,6.0,68,0.00,,,0.00,Wunderground v.1.15,2015-07-06 15:10:00,
2015-07-06 11:20:00,76.7,64.9,29.97,SW,227,5.0,10.0,67,0.00,,,0.00,Wunderground v.1.15,2015-07-06 15:20:00,
2015-07-06 11:30:00,76.7,63.6,29.97,SW,230,5.0,6.0,64,0.00,,,0.00,Wunderground v.1.15,2015-07-06 15:30:00,
2015-07-06 11:35:00,76.7,64.0,29.97,SW,227,5.0,11.0,65,0.00,,,0.00,Wunderground v.1.15,2015-07-06 15:35:00,
2015-07-06 11:45:00,77.2,64.5,29.97,West,271,4.0,8.0,65,0.00,,,0.00,Wunderground v.1.15,2015-07-06 15:45:00,
2015-07-06 11:55:00,77.4,64.3,29.97,WNW,303,6.0,11.0,64,0.00,,,0.00,Wunderground v.1.15,2015-07-06 15:55:00,
2015-07-06 12:00:00,77.5,64.4,29.97,West,277,4.0,4.0,64,0.00,,,0.00,Wunderground v.1.15,2015-07-06 16:00:00,
2015-07-06 12:10:00,78.2,63.6,29.96,West,267,4.0,7.0,61,0.00,,,0.00,Wunderground v.1.15,2015-07-06 16:10:00,
2015-07-06 12:20:00,77.7,63.6,29.97,WNW,289,8.0,8.0,62,0.00,,,0.00,Wunderground v.1.15,2015-07-06 16:20:00,
2015-07-06 12:30:00,77.9,64.7,29.97,SW,226,5.0,5.0,64,0.00,,,0.00,Wunderground v.1.15,2015-07-06 16:30:00,
2015-07-06 12:35:00,78.0,63.9,29.97,West,281,4.0,13.0,62,0.00,,,0.00,Wunderground v.1.15,2015-07-06 16:35:00,
2015-07-06 12:45:00,78.6,65.8,29.96,West,267,6.0,7.0,65,0.00,,,0.00,Wunderground v.1.15,2015-07-06 16:45:00,
2015-07-06 12:50:00,78.6,64.9,29.96,NW,325,5.0,5.0,63,0.00,,,0.00,Wunderground v.1.15,2015-07-06 16:50:00,
2015-07-06 13:00:00,79.2,64.1,29.97,WNW,289,5.0,5.0,60,0.00,,,0.00,Wunderground v.1.15,2015-07-06 17:00:00,
2015-07-06 13:05:00,79.0,63.9,29.97,West,270,6.0,6.0,60,0.00,,,0.00,Wunderground v.1.15,2015-07-06 17:05:00,
2015-07-06 13:15:00,79.3,65.6,29.96,WNW,299,3.0,6.0,63,0.00,,,0.00,Wunderground v.1.15,2015-07-06 17:15:00,
2015-07-06 13:25:00,80.0,64.9,29.96,SW,226,5.0,11.0,60,0.00,,,0.00,Wunderground v.1.15,2015-07-06 17:25:00,
2015-07-06 13:35:00,79.8,65.2,29.96,SW,235,4.0,9.0,61,0.00,,,0.00,Wunderground v.1.15,2015-07-06 17:35:00,
2015-07-06 13:40:00,79.9,64.8,29.96,West,260,4.0,9.0,60,0.00,,,0.00,Wunderground v.1.15,2015-07-06 17:40:00,
2015-07-06 14:00:00,79.8,65.6,29.95,WSW,238,8.0,8.0,62,0.00,,,0.00,Wunderground v.1.15,2015-07-06 18:00:00,
2015-07-06 14:05:00,80.2,66.0,29.96,SW,229,6.0,13.0,62,0.00,,,0.00,Wunderground v.1.15,2015-07-06 18:05:00,
2015-07-06 14:15:00,80.7,66.5,29.95,WSW,249,6.0,7.0,62,0.00,,,0.00,Wunderground v.1.15,2015-07-06 18:15:00,
2015-07-06 14:20:00,81.0,64.3,29.96,West,278,5.0,5.0,57,0.00,,,0.00,Wunderground v.1.15,2015-07-06 18:20:00,
2015-07-06 14:30:00,81.4,65.2,29.96,West,262,6.0,6.0,58,0.00,,,0.00,Wunderground v.1.15,2015-07-06 18:30:00,
2015-07-06 14:35:00,81.1,65.9,29.96,SW,220,6.0,12.0,60,0.00,,,0.00,Wunderground v.1.15,2015-07-06 18:35:00,
2015-07-06 14:45:00,80.8,64.1,29.95,West,266,6.0,7.0,57,0.00,,,0.00,Wunderground v.1.15,2015-07-06 18:45:00,
2015-07-06 14:50:00,81.0,64.3,29.95,West,277,5.0,12.0,57,0.00,,,0.00,Wunderground v.1.15,2015-07-06 18:50:00,
2015-07-06 15:00:00,80.7,64.1,29.95,SSW,202,6.0,6.0,57,0.00,,,0.00,Wunderground v.1.15,2015-07-06 19:00:00,
2015-07-06 15:05:00,81.0,64.8,29.95,SSW,209,3.0,11.0,58,0.00,,,0.00,Wunderground v.1.15,2015-07-06 19:05:00,
2015-07-06 15:15:00,82.1,65.4,29.94,South,186,5.0,5.0,57,0.00,,,0.00,Wunderground v.1.15,2015-07-06 19:15:00,
2015-07-06 15:25:00,82.0,64.8,29.94,SW,225,4.0,5.0,56,0.00,,,0.00,Wunderground v.1.15,2015-07-06 19:25:00,
2015-07-06 15:30:00,81.9,66.2,29.93,SW,223,6.0,6.0,59,0.00,,,0.00,Wunderground v.1.15,2015-07-06 19:30:00,
2015-07-06 15:40:00,82.0,65.3,29.93,WSW,246,6.0,6.0,57,0.00,,,0.00,Wunderground v.1.15,2015-07-06 19:40:00,
2015-07-06 15:50:00,82.4,66.1,29.93,WSW,242,7.0,16.0,58,0.00,,,0.00,Wunderground v.1.15,2015-07-06 19:50:00,
2015-07-06 15:55:00,82.4,66.1,29.93,West,265,6.0,16.0,58,0.00,,,0.00,Wunderground v.1.15,2015-07-06 19:55:00,
2015-07-06 16:05:00,82.9,66.1,29.93,West,273,3.0,14.0,57,0.00,,,0.00,Wunderground v.1.15,2015-07-06 20:05:00,
2015-07-06 16:10:00,83.1,66.8,29.92,SW,221,4.0,6.0,58,0.00,,,0.00,Wunderground v.1.15,2015-07-06 20:10:00,
2015-07-06 16:20:00,83.0,66.7,29.92,WSW,257,3.0,12.0,58,0.00,,,0.00,Wunderground v.1.15,2015-07-06 20:20:00,
2015-07-06 16:30:00,83.0,66.2,29.91,WSW,247,5.0,5.0,57,0.00,,,0.00,Wunderground v.1.15,2015-07-06 20:30:00,
2015-07-06 16:45:00,82.6,66.3,29.90,SSW,192,5.0,6.0,58,0.00,,,0.00,Wunderground v.1.15,2015-07-06 20:45:00,
2015-07-06 16:50:00,83.0,67.7,29.90,West,268,3.0,3.0,60,0.00,,,0.00,Wunderground v.1.15,2015-07-06 20:50:00,